Time,TemperatureF,DewpointF,PressureIn,WindDirection,WindDirectionDegrees,WindSpeedMPH,WindSpeedGustMPH,Humidity,HourlyPrecipIn,Conditions,Clouds,dailyrainin,SoftwareType,DateUTC
2013-01-23 00:10:00,9.4,1.6,30.14,West,276,5.0,14.0,70,0.00,SCT,,0.00,WeatherDisplay:10.37,2013-01-23 05:10:00,
2013-01-23 00:30:00,8.5,2.2,30.13,WSW,258,2.0,8.0,75,0.00,SCT,,0.00,WeatherDisplay:10.37,2013-01-23 05:30:00,
2013-01-23 00:40:00,8.1,2.4,30.13,West,264,0.0,5.0,77,0.00,SCT,,0.00,WeatherDisplay:10.37,2013-01-23 05:40:00,
2013-01-23 00:50:00,7.6,2.2,30.13,West,267,0.0,3.0,78,0.00,SCT,,0.00,WeatherDisplay:10.37,2013-01-23 05:50:00,
2013-01-23 01:00:00,6.9,2.0,30.13,West,267,0.0,2.0,80,0.00,SCT,,0.00,WeatherDisplay:10.37,2013-01-23 06:00:00,
2013-01-23 01:10:00,7.3,2.2,30.13,WSW,254,0.0,3.0,79,0.00,FEW,,0.00,WeatherDisplay:10.37,2013-01-23 06:10:00,
2013-01-23 01:20:00,7.7,1.1,30.14,WNW,297,7.0,9.0,74,0.00,FEW,,0.00,WeatherDisplay:10.37,2013-01-23 06:20:00,
2013-01-23 01:30:00,8.2,-0.5,30.14,NW,304,1.0,11.0,67,0.00,FEW,,0.00,WeatherDisplay:10.37,2013-01-23 06:30:00,
2013-01-23 01:40:00,8.3,-1.4,30.14,WNW,288,7.0,11.0,64,0.00,FEW,,0.00,WeatherDisplay:10.37,2013-01-23 06:40:00,
2013-01-23 01:50:00,8.3,-2.1,30.14,West,278,10.0,12.0,62,0.00,FEW,,0.00,WeatherDisplay:10.37,2013-01-23 06:50:00,
2013-01-23 02:00:00,8.2,-2.5,30.15,WNW,302,3.0,18.0,61,0.00,FEW,,0.00,WeatherDisplay:10.37,2013-01-23 07:00:00,
2013-01-23 02:10:00,7.9,-2.7,30.15,WNW,300,10.0,12.0,61,0.00,CLR,,0.00,WeatherDisplay:10.37,2013-01-23 07:10:00,
2013-01-23 02:20:00,7.8,-2.2,30.16,WNW,292,1.0,14.0,63,0.00,CLR,,0.00,WeatherDisplay:10.37,2013-01-23 07:20:00,
2013-01-23 02:30:00,7.4,-2.6,30.16,West,273,2.0,6.0,63,0.00,CLR,,0.00,WeatherDisplay:10.37,2013-01-23 07:30:00,
2013-01-23 02:40:00,7.1,-2.5,30.16,NW,304,6.0,9.0,64,0.00,CLR,,0.00,WeatherDisplay:10.37,2013-01-23 07:40:00,
2013-01-23 02:50:00,7.1,-2.9,30.16,WNW,291,5.0,11.0,63,0.00,CLR,,0.00,WeatherDisplay:10.37,2013-01-23 07:50:00,
2013-01-23 03:00:00,6.9,-3.1,30.16,WNW,291,7.0,11.0,63,0.00,CLR,,0.00,WeatherDisplay:10.37,2013-01-23 08:00:00,
2013-01-23 03:10:00,6.8,-3.1,30.16,WNW,288,8.0,15.0,63,0.00,CLR,,0.00,WeatherDisplay:10.37,2013-01-23 08:10:00,
2013-01-23 03:20:00,6.6,-3.3,30.16,WNW,300,3.0,12.0,63,0.00,CLR,,0.00,WeatherDisplay:10.37,2013-01-23 08:20:00,
2013-01-23 03:30:00,6.2,-3.7,30.17,West,263,1.0,6.0,63,0.00,CLR,,0.00,WeatherDisplay:10.37,2013-01-23 08:30:00,
2013-01-23 03:40:00,5.9,-3.3,30.17,NW,308,0.0,6.0,65,0.00,CLR,,0.00,WeatherDisplay:10.37,2013-01-23 08:40:00,
2013-01-23 03:50:00,5.5,-3.5,30.17,WNW,283,3.0,9.0,66,0.00,CLR,,0.00,WeatherDisplay:10.37,2013-01-23 08:50:00,
2013-01-23 04:00:00,5.9,-4.0,30.17,West,275,2.0,11.0,63,0.00,CLR,,0.00,WeatherDisplay:10.37,2013-01-23 09:00:00,
2013-01-23 04:10:00,5.6,-4.0,30.17,West,277,1.0,5.0,64,0.00,CLR,,0.00,WeatherDisplay:10.37,2013-01-23 09:10:00,
2013-01-23 04:20:00,5.0,-3.6,30.17,WSW,255,0.0,3.0,67,0.00,CLR,,0.00,WeatherDisplay:10.37,2013-01-23 09:20:00,
2013-01-23 04:30:00,4.8,-3.7,30.17,West,272,5.0,11.0,67,0.00,CLR,,0.00,WeatherDisplay:10.37,2013-01-23 09:30:00,
2013-01-23 04:40:00,5.1,-3.8,30.17,West,265,5.0,9.0,66,0.00,CLR,,0.00,WeatherDisplay:10.37,2013-01-23 09:40:00,
2013-01-23 04:50:00,4.7,-3.9,30.17,West,259,0.0,2.0,67,0.00,CLR,,0.00,WeatherDisplay:10.37,2013-01-23 09:50:00,
2013-01-23 05:00:00,3.8,-3.5,30.18,WSW,248,1.0,3.0,71,0.00,CLR,,0.00,WeatherDisplay:10.37,2013-01-23 10:00:00,
2013-01-23 05:10:00,3.5,-3.2,30.18,SW,235,0.0,3.0,73,0.00,CLR,,0.00,WeatherDisplay:10.37,2013-01-23 10:10:00,
2013-01-23 05:20:00,3.0,-3.1,30.18,SW,235,0.0,0.0,75,0.00,CLR,,0.00,WeatherDisplay:10.37,2013-01-23 10:20:00,
2013-01-23 05:30:00,2.9,-3.0,30.18,SW,235,0.0,0.0,76,0.00,CLR,,0.00,WeatherDisplay:10.37,2013-01-23 10:30:00,
2013-01-23 05:40:00,2.7,-2.9,30.18,SW,235,0.0,0.0,77,0.00,CLR,,0.00,WeatherDisplay:10.37,2013-01-23 10:40:00,
2013-01-23 05:50:00,2.4,-2.9,30.18,SW,235,0.0,0.0,78,0.00,CLR,,0.00,WeatherDisplay:10.37,2013-01-23 10:50:00,
2013-01-23 06:00:00,2.4,-2.6,30.18,SW,235,0.0,2.0,79,0.00,CLR,,0.00,WeatherDisplay:10.37,2013-01-23 11:00:00,
2013-01-23 06:10:00,2.6,-2.4,30.19,SW,235,0.0,1.0,79,0.00,FEW,,0.00,WeatherDisplay:10.37,2013-01-23 11:10:00,
2013-01-23 06:20:00,2.9,-2.4,30.19,SW,235,0.0,3.0,78,0.00,FEW,,0.00,WeatherDisplay:10.37,2013-01-23 11:20:00,
2013-01-23 06:30:00,2.8,-2.5,30.19,SW,236,0.0,2.0,78,0.00,FEW,,0.00,WeatherDisplay:10.37,2013-01-23 11:30:00,
2013-01-23 06:40:00,3.1,-2.2,30.19,West,275,0.0,5.0,78,0.00,FEW,,0.00,WeatherDisplay:10.37,2013-01-23 11:40:00,
2013-01-23 06:50:00,3.7,-2.2,30.20,WNW,282,0.0,2.0,76,0.00,FEW,,0.00,WeatherDisplay:10.37,2013-01-23 11:50:00,
2013-01-23 07:00:00,3.8,-2.4,30.20,WSW,249,0.0,3.0,75,0.00,FEW,,0.00,WeatherDisplay:10.37,2013-01-23 12:00:00,
2013-01-23 07:10:00,3.8,-2.7,30.20,West,260,0.0,5.0,74,0.00,SCT,,0.00,WeatherDisplay:10.37,2013-01-23 12:10:00,
2013-01-23 07:20:00,3.8,-2.7,30.20,WSW,257,1.0,5.0,74,0.00,SCT,,0.00,WeatherDisplay:10.37,2013-01-23 12:20:00,
2013-01-23 07:30:00,3.9,-2.8,30.20,West,269,1.0,8.0,73,0.00,SCT,,0.00,WeatherDisplay:10.37,2013-01-23 12:30:00,
2013-01-23 07:40:00,4.1,-2.9,30.20,West,280,2.0,9.0,72,0.00,SCT,,0.00,WeatherDisplay:10.37,2013-01-23 12:40:00,
2013-01-23 07:50:00,4.3,-3.0,30.21,West,272,2.0,6.0,71,0.00,SCT,,0.00,WeatherDisplay:10.37,2013-01-23 12:50:00,
2013-01-23 08:00:00,4.5,-2.8,30.21,West,259,3.0,11.0,71,0.00,SCT,,0.00,WeatherDisplay:10.37,2013-01-23 13:00:00,
2013-01-23 08:10:00,4.4,-2.9,30.21,WNW,292,7.0,11.0,71,0.00,SCT,,0.00,WeatherDisplay:10.37,2013-01-23 13:10:00,
2013-01-23 08:20:00,5.2,-2.8,30.21,WNW,292,6.0,8.0,69,0.00,SCT,,0.00,WeatherDisplay:10.37,2013-01-23 13:20:00,
2013-01-23 08:30:00,5.7,-2.5,30.22,WNW,288,6.0,14.0,68,0.00,SCT,,0.00,WeatherDisplay:10.37,2013-01-23 13:30:00,
2013-01-23 08:40:00,6.0,-2.3,30.22,WNW,299,8.0,12.0,68,0.00,SCT,,0.00,WeatherDisplay:10.37,2013-01-23 13:40:00,
2013-01-23 08:50:00,6.5,-2.1,30.22,NW,308,14.0,15.0,67,0.00,SCT,,0.00,WeatherDisplay:10.37,2013-01-23 13:50:00,
2013-01-23 09:00:00,6.7,-2.3,30.22,NW,307,7.0,11.0,66,0.00,SCT,,0.00,WeatherDisplay:10.37,2013-01-23 14:00:00,
2013-01-23 09:10:00,6.9,-2.7,30.22,WNW,293,6.0,15.0,64,0.00,SCT,,0.00,WeatherDisplay:10.37,2013-01-23 14:10:00,
2013-01-23 09:20:00,7.4,-2.2,30.22,NW,311,13.0,21.0,64,0.00,SCT,,0.00,WeatherDisplay:10.37,2013-01-23 14:20:00,
2013-01-23 09:30:00,7.1,-2.6,30.23,NW,313,12.0,20.0,64,0.00,SCT,,0.00,WeatherDisplay:10.37,2013-01-23 14:30:00,
2013-01-23 09:40:00,7.6,-2.1,30.23,NW,311,14.0,17.0,64,0.00,SCT,,0.00,WeatherDisplay:10.37,2013-01-23 14:40:00,
2013-01-23 09:50:00,8.2,-1.2,30.23,NW,308,9.0,20.0,65,0.00,SCT,,0.00,WeatherDisplay:10.37,2013-01-23 14:50:00,
2013-01-23 10:00:00,7.8,-1.8,30.23,NW,305,15.0,21.0,64,0.00,FEW,,0.00,WeatherDisplay:10.37,2013-01-23 15:00:00,
2013-01-23 10:10:00,8.0,-1.7,30.23,NW,310,10.0,17.0,64,0.00,FEW,,0.00,WeatherDisplay:10.37,2013-01-23 15:10:00,
2013-01-23 10:20:00,8.7,-1.3,30.23,NW,314,7.0,18.0,63,0.00,FEW,,0.00,WeatherDisplay:10.37,2013-01-23 15:20:00,
2013-01-23 10:30:00,8.3,-1.8,30.23,NW,312,12.0,17.0,63,0.00,FEW,,0.00,WeatherDisplay:10.37,2013-01-23 15:30:00,
2013-01-23 10:40:00,8.1,-1.6,30.23,NW,320,9.0,17.0,64,0.00,FEW,,0.00,WeatherDisplay:10.37,2013-01-23 15:40:00,
2013-01-23 10:50:00,8.3,-1.7,30.23,NW,318,10.0,18.0,63,0.00,FEW,,0.00,WeatherDisplay:10.37,2013-01-23 15:50:00,
2013-01-23 11:00:00,9.0,-0.7,30.23,NW,311,13.0,17.0,64,0.00,FEW,,0.00,WeatherDisplay:10.37,2013-01-23 16:00:00,
2013-01-23 11:10:00,9.1,-1.0,30.22,NW,310,13.0,20.0,63,0.00,SCT,,0.00,WeatherDisplay:10.37,2013-01-23 16:10:00,
2013-01-23 11:20:00,9.5,-0.6,30.22,WNW,296,6.0,20.0,63,0.00,SCT,,0.00,WeatherDisplay:10.37,2013-01-23 16:20:00,
2013-01-23 11:30:00,9.2,-1.5,30.22,WNW,283,9.0,14.0,61,0.00,SCT,,0.00,WeatherDisplay:10.37,2013-01-23 16:30:00,
2013-01-23 11:40:00,10.2,0.1,30.21,WNW,292,10.0,15.0,63,0.00,SCT,,0.00,WeatherDisplay:10.37,2013-01-23 16:40:00,
2013-01-23 11:50:00,10.5,-0.3,30.20,WNW,282,15.0,20.0,61,0.00,SCT,,0.00,WeatherDisplay:10.37,2013-01-23 16:50:00,
2013-01-23 12:00:00,11.5,0.6,30.20,WNW,288,13.0,15.0,61,0.00,SCT,,0.00,WeatherDisplay:10.37,2013-01-23 17:00:00,
2013-01-23 12:10:00,10.8,-0.7,30.20,WNW,301,16.0,21.0,59,0.00,SCT,,0.00,WeatherDisplay:10.37,2013-01-23 17:10:00,
2013-01-23 12:20:00,11.0,-0.6,30.19,WNW,299,15.0,23.0,59,0.00,SCT,,0.00,WeatherDisplay:10.37,2013-01-23 17:20:00,
2013-01-23 12:30:00,11.3,-0.6,30.19,WNW,299,22.0,23.0,58,0.00,SCT,,0.00,WeatherDisplay:10.37,2013-01-23 17:30:00,
2013-01-23 12:40:00,11.2,-1.1,30.18,WNW,301,14.0,20.0,57,0.00,SCT,,0.00,WeatherDisplay:10.37,2013-01-23 17:40:00,
2013-01-23 12:50:00,11.8,-0.5,30.17,NW,317,18.0,24.0,57,0.00,SCT,,0.00,WeatherDisplay:10.37,2013-01-23 17:50:00,
2013-01-23 13:00:00,12.5,-0.2,30.17,NW,308,17.0,21.0,56,0.00,SCT,,0.00,WeatherDisplay:10.37,2013-01-23 18:00:00,
2013-01-23 13:10:00,12.3,-1.6,30.17,WNW,293,21.0,29.0,53,0.00,FEW,,0.00,WeatherDisplay:10.37,2013-01-23 18:10:00,
2013-01-23 13:20:00,12.1,-1.8,30.17,WNW,298,14.0,23.0,53,0.00,FEW,,0.00,WeatherDisplay:10.37,2013-01-23 18:20:00,
2013-01-23 13:30:00,12.2,-1.7,30.17,WNW,289,12.0,24.0,53,0.00,FEW,,0.00,WeatherDisplay:10.37,2013-01-23 18:30:00,
2013-01-23 13:40:00,12.0,-2.7,30.17,WNW,286,13.0,25.0,51,0.00,FEW,,0.00,WeatherDisplay:10.37,2013-01-23 18:40:00,
2013-01-23 13:50:00,12.4,-2.3,30.17,WNW,285,10.0,20.0,51,0.00,FEW,,0.00,WeatherDisplay:10.37,2013-01-23 18:50:00,
2013-01-23 14:00:00,12.0,-3.1,30.17,WNW,285,13.0,21.0,50,0.00,FEW,,0.00,WeatherDisplay:10.37,2013-01-23 19:00:00,
2013-01-23 14:10:00,12.0,-3.1,30.17,West,273,8.0,25.0,50,0.00,SCT,,0.00,WeatherDisplay:10.37,2013-01-23 19:10:00,
2013-01-23 14:20:00,11.7,-3.4,30.17,WNW,290,23.0,32.0,50,0.00,SCT,,0.00,WeatherDisplay:10.37,2013-01-23 19:20:00,
2013-01-23 14:30:00,10.7,-4.3,30.17,WNW,284,17.0,29.0,50,0.00,SCT,,0.00,WeatherDisplay:10.37,2013-01-23 19:30:00,
2013-01-23 14:40:00,11.3,-3.0,30.17,WNW,292,12.0,23.0,52,0.00,SCT,,0.00,WeatherDisplay:10.37,2013-01-23 19:40:00,
2013-01-23 14:50:00,10.9,-3.7,30.18,WNW,288,14.0,24.0,51,0.00,SCT,,0.00,WeatherDisplay:10.37,2013-01-23 19:50:00,
2013-01-23 15:00:00,10.8,-3.8,30.18,WNW,294,18.0,20.0,51,0.00,SCT,,0.00,WeatherDisplay:10.37,2013-01-23 20:00:00,
2013-01-23 15:10:00,11.3,-4.2,30.18,WNW,299,14.0,25.0,49,0.00,SCT,,0.00,WeatherDisplay:10.37,2013-01-23 20:10:00,
2013-01-23 15:20:00,11.8,-4.1,30.18,West,277,12.0,25.0,48,0.00,SCT,,0.00,WeatherDisplay:10.37,2013-01-23 20:20:00,
2013-01-23 15:30:00,11.1,-4.4,30.18,West,266,14.0,27.0,49,0.00,SCT,,0.00,WeatherDisplay:10.37,2013-01-23 20:30:00,
2013-01-23 15:40:00,10.5,-4.9,30.18,West,269,15.0,23.0,49,0.00,SCT,,0.00,WeatherDisplay:10.37,2013-01-23 20:40:00,
2013-01-23 15:50:00,9.9,-5.0,30.18,WNW,283,15.0,25.0,50,0.00,SCT,,0.00,WeatherDisplay:10.37,2013-01-23 20:50:00,
2013-01-23 16:00:00,9.6,-5.3,30.18,West,281,16.0,27.0,50,0.00,SCT,,0.00,WeatherDisplay:10.37,2013-01-23 21:00:00,
2013-01-23 16:10:00,9.5,-5.4,30.18,WNW,286,12.0,20.0,50,0.00,BKN,,0.00,WeatherDisplay:10.37,2013-01-23 21:10:00,
2013-01-23 16:20:00,9.3,-4.8,30.18,WNW,292,13.0,23.0,52,0.00,BKN,,0.00,WeatherDisplay:10.37,2013-01-23 21:20:00,
2013-01-23 16:30:00,8.9,-5.2,30.18,West,267,6.0,23.0,52,0.00,BKN,,0.00,WeatherDisplay:10.37,2013-01-23 21:30:00,
2013-01-23 16:40:00,8.5,-5.1,30.18,West,272,6.0,14.0,53,0.00,BKN,,0.00,WeatherDisplay:10.37,2013-01-23 21:40:00,
2013-01-23 16:50:00,8.3,-5.0,30.19,WNW,284,6.0,23.0,54,0.00,BKN,,0.00,WeatherDisplay:10.37,2013-01-23 21:50:00,
2013-01-23 17:00:00,8.0,-5.2,30.19,WNW,286,9.0,17.0,54,0.00,BKN,,0.00,WeatherDisplay:10.37,2013-01-23 22:00:00,
2013-01-23 17:10:00,7.8,-5.4,30.19,WNW,286,6.0,18.0,54,0.00,SCT,,0.00,WeatherDisplay:10.37,2013-01-23 22:10:00,
2013-01-23 17:20:00,7.7,-5.1,30.19,WNW,285,5.0,17.0,55,0.00,SCT,,0.00,WeatherDisplay:10.37,2013-01-23 22:20:00,
2013-01-23 17:30:00,7.5,-5.3,30.19,WNW,285,7.0,18.0,55,0.00,SCT,,0.00,WeatherDisplay:10.37,2013-01-23 22:30:00,
2013-01-23 17:40:00,7.5,-5.0,30.20,WNW,286,5.0,20.0,56,0.00,SCT,,0.00,WeatherDisplay:10.37,2013-01-23 22:40:00,
2013-01-23 17:50:00,7.3,-5.1,30.20,WNW,296,9.0,14.0,56,0.00,SCT,,0.00,WeatherDisplay:10.37,2013-01-23 22:50:00,
2013-01-23 18:00:00,7.3,-5.1,30.20,West,272,13.0,15.0,56,0.00,SCT,,0.00,WeatherDisplay:10.37,2013-01-23 23:00:00,
2013-01-23 18:10:00,7.2,-4.9,30.20,West,270,6.0,15.0,57,0.00,SCT,,0.00,WeatherDisplay:10.37,2013-01-23 23:10:00,
2013-01-23 18:20:00,7.1,-4.6,30.20,West,281,6.0,9.0,58,0.00,SCT,,0.00,WeatherDisplay:10.37,2013-01-23 23:20:00,
2013-01-23 18:30:00,7.1,-4.6,30.21,West,281,5.0,15.0,58,0.00,SCT,,0.00,WeatherDisplay:10.37,2013-01-23 23:30:00,
2013-01-23 18:40:00,6.9,-4.7,30.21,West,280,6.0,11.0,58,0.00,SCT,,0.00,WeatherDisplay:10.37,2013-01-23 23:40:00,
2013-01-23 18:50:00,6.9,-4.5,30.21,West,279,6.0,14.0,59,0.00,SCT,,0.00,WeatherDisplay:10.37,2013-01-23 23:50:00,
2013-01-23 19:00:00,6.6,-4.4,30.21,WSW,255,1.0,6.0,60,0.00,SCT,,0.00,WeatherDisplay:10.37,2013-01-24 00:00:00,
2013-01-23 19:10:00,6.5,-4.5,30.21,West,262,1.0,9.0,60,0.00,SCT,,0.00,WeatherDisplay:10.37,2013-01-24 00:10:00,
2013-01-23 19:20:00,6.4,-4.6,30.21,NW,304,2.0,6.0,60,0.00,SCT,,0.00,WeatherDisplay:10.37,2013-01-24 00:20:00,
2013-01-23 19:30:00,6.2,-4.7,30.21,West,265,1.0,3.0,60,0.00,SCT,,0.00,WeatherDisplay:10.37,2013-01-24 00:30:00,
2013-01-23 19:40:00,6.0,-4.3,30.20,West,274,0.0,5.0,62,0.00,SCT,,0.00,WeatherDisplay:10.37,2013-01-24 00:40:00,
2013-01-23 19:50:00,5.8,-4.1,30.20,West,273,1.0,5.0,63,0.00,SCT,,0.00,WeatherDisplay:10.37,2013-01-24 00:50:00,
2013-01-23 20:00:00,5.7,-3.9,30.20,WNW,290,3.0,8.0,64,0.00,SCT,,0.00,WeatherDisplay:10.37,2013-01-24 01:00:00,
2013-01-23 20:10:00,5.4,-4.1,30.20,WNW,299,0.0,5.0,64,0.00,FEW,,0.00,WeatherDisplay:10.37,2013-01-24 01:10:00,
2013-01-23 20:20:00,5.0,-4.2,30.20,WNW,282,0.0,2.0,65,0.00,FEW,,0.00,WeatherDisplay:10.37,2013-01-24 01:20:00,
2013-01-23 20:30:00,5.0,-4.2,30.20,WNW,282,1.0,6.0,65,0.00,FEW,,0.00,WeatherDisplay:10.37,2013-01-24 01:30:00,
2013-01-23 20:40:00,4.8,-3.8,30.20,WNW,286,1.0,3.0,67,0.00,FEW,,0.00,WeatherDisplay:10.37,2013-01-24 01:40:00,
2013-01-23 20:50:00,4.5,-3.7,30.20,WNW,286,0.0,0.0,68,0.00,FEW,,0.00,WeatherDisplay:10.37,2013-01-24 01:50:00,
2013-01-23 21:00:00,4.2,-3.8,30.20,WNW,286,0.0,2.0,69,0.00,FEW,,0.00,WeatherDisplay:10.37,2013-01-24 02:00:00,
2013-01-23 21:10:00,3.7,-3.9,30.20,WNW,286,0.0,2.0,70,0.00,CLR,,0.00,WeatherDisplay:10.37,2013-01-24 02:10:00,
2013-01-23 21:20:00,3.3,-4.0,30.20,WNW,286,0.0,3.0,71,0.00,CLR,,0.00,WeatherDisplay:10.37,2013-01-24 02:20:00,
2013-01-23 21:30:00,3.2,-3.8,30.19,West,271,0.0,5.0,72,0.00,CLR,,0.00,WeatherDisplay:10.37,2013-01-24 02:30:00,
2013-01-23 21:40:00,3.3,-3.7,30.19,West,261,0.0,5.0,72,0.00,CLR,,0.00,WeatherDisplay:10.37,2013-01-24 02:40:00,
2013-01-23 21:50:00,3.7,-3.6,30.19,West,260,1.0,3.0,71,0.00,CLR,,0.00,WeatherDisplay:10.37,2013-01-24 02:50:00,
2013-01-23 22:00:00,4.0,-3.9,30.19,WNW,292,1.0,6.0,69,0.00,CLR,,0.00,WeatherDisplay:10.37,2013-01-24 03:00:00,
2013-01-23 22:10:00,3.9,-4.3,30.19,WNW,296,0.0,3.0,68,0.00,CLR,,0.00,WeatherDisplay:10.37,2013-01-24 03:10:00,
2013-01-23 22:20:00,3.5,-4.1,30.19,WNW,298,0.0,3.0,70,0.00,CLR,,0.00,WeatherDisplay:10.37,2013-01-24 03:20:00,
2013-01-23 22:30:00,3.3,-4.0,30.19,WNW,300,0.0,2.0,71,0.00,CLR,,0.00,WeatherDisplay:10.37,2013-01-24 03:30:00,
2013-01-23 22:40:00,3.0,-3.7,30.19,WNW,300,0.0,0.0,73,0.00,CLR,,0.00,WeatherDisplay:10.37,2013-01-24 03:40:00,
2013-01-23 22:50:00,2.7,-4.0,30.19,WNW,300,0.0,2.0,73,0.00,CLR,,0.00,WeatherDisplay:10.37,2013-01-24 03:50:00,
2013-01-23 23:00:00,2.4,-3.7,30.20,WNW,300,0.0,0.0,75,0.00,CLR,,0.00,WeatherDisplay:10.37,2013-01-24 04:00:00,
2013-01-23 23:10:00,2.0,-4.1,30.20,WNW,300,0.0,0.0,75,0.00,CLR,,0.00,WeatherDisplay:10.37,2013-01-24 04:10:00,
2013-01-23 23:20:00,1.4,-4.7,30.20,WNW,300,0.0,2.0,75,0.00,CLR,,0.00,WeatherDisplay:10.37,2013-01-24 04:20:00,
2013-01-23 23:30:00,1.2,-4.6,30.20,WNW,300,0.0,2.0,76,0.00,CLR,,0.00,WeatherDisplay:10.37,2013-01-24 04:30:00,
2013-01-23 23:40:00,1.0,-4.2,30.20,WNW,300,0.0,2.0,78,0.00,CLR,,0.00,WeatherDisplay:10.37,2013-01-24 04:40:00,
2013-01-23 23:50:00,0.9,-4.1,30.20,WNW,300,0.0,0.0,79,0.00,CLR,,0.00,WeatherDisplay:10.37,2013-01-24 04:50:00,